createdAt,value
2023-03-01T00:01:18.185Z,41.27
2023-03-01T00:03:44.789Z,41.61
2023-03-01T00:06:12.034Z,40.96
2023-03-01T00:08:39.006Z,41.03
2023-03-01T00:11:07.900Z,41.79
2023-03-01T00:13:35.740Z,41.29
2023-03-01T00:16:11.175Z,41.42
2023-03-01T00:18:37.697Z,41.09
2023-03-01T00:21:04.458Z,41.71
2023-03-01T00:23:31.053Z,41.52
2023-03-01T00:25:57.575Z,41.47
2023-03-01T00:28:24.274Z,41.35
2023-03-01T00:30:50.896Z,41.12
2023-03-01T00:33:18.414Z,42.61
2023-03-01T00:35:45.354Z,42.19
2023-03-01T00:38:12.324Z,41.63
2023-03-01T00:40:38.893Z,41.41
2023-03-01T00:43:05.536Z,41.40
2023-03-01T00:45:33.757Z,41.93
2023-03-01T00:48:00.452Z,42.00
2023-03-01T00:50:27.059Z,42.18
2023-03-01T00:52:55.294Z,41.86
2023-03-01T00:55:22.032Z,42.19
2023-03-01T00:57:48.697Z,41.80
2023-03-01T01:00:16.175Z,42.24
2023-03-01T01:02:43.206Z,41.37
2023-03-01T01:05:09.808Z,40.94
2023-03-01T01:07:36.507Z,41.41
2023-03-01T01:10:03.682Z,40.97
2023-03-01T01:12:30.381Z,41.33
2023-03-01T01:14:56.945Z,41.73
2023-03-01T01:17:23.467Z,41.13
2023-03-01T01:19:50.234Z,41.61
2023-03-01T01:22:17.472Z,41.73
2023-03-01T01:24:44.044Z,41.82
2023-03-01T01:27:10.642Z,42.29
2023-03-01T01:29:37.591Z,41.45
2023-03-01T01:32:04.286Z,42.44
2023-03-01T01:34:30.851Z,41.85
2023-03-01T01:36:58.105Z,41.08
2023-03-01T01:39:24.677Z,41.20
2023-03-01T01:41:51.259Z,41.22
2023-03-01T01:44:26.513Z,41.29
2023-03-01T01:47:08.103Z,40.93
2023-03-01T01:49:40.082Z,41.73
2023-03-01T01:52:15.929Z,41.53
2023-03-01T01:54:51.527Z,41.55
2023-03-01T01:57:22.917Z,41.62
2023-03-01T01:59:53.884Z,41.73
2023-03-01T02:02:21.040Z,41.54
2023-03-01T02:04:49.325Z,41.41
2023-03-01T02:07:26.896Z,41.07
2023-03-01T02:09:53.832Z,41.54
2023-03-01T02:12:24.313Z,41.58
2023-03-01T02:14:51.259Z,42.18
2023-03-01T02:17:19.187Z,41.99
2023-03-01T02:19:58.995Z,41.28
2023-03-01T02:22:31.000Z,41.82
2023-03-01T02:25:09.216Z,41.50
2023-03-01T02:27:55.180Z,41.71
2023-03-01T02:30:23.164Z,41.28
2023-03-01T02:32:51.895Z,41.35
2023-03-01T02:35:19.629Z,41.56
2023-03-01T02:37:47.284Z,41.34
2023-03-01T02:40:18.269Z,41.10
2023-03-01T02:42:54.540Z,40.88
2023-03-01T02:45:22.096Z,40.57
2023-03-01T02:47:48.622Z,40.96
2023-03-01T02:50:30.412Z,41.11
2023-03-01T02:53:05.635Z,40.85
2023-03-01T02:55:32.164Z,41.10
2023-03-01T02:58:03.364Z,41.94
2023-03-01T03:00:40.409Z,41.27
2023-03-01T03:03:08.153Z,41.82
2023-03-01T03:05:34.743Z,41.32
2023-03-01T03:08:04.149Z,41.73
2023-03-01T03:10:37.596Z,41.61
2023-03-01T03:13:08.035Z,41.34
2023-03-01T03:15:39.289Z,41.39
2023-03-01T03:18:09.174Z,42.18
2023-03-01T03:20:35.937Z,41.60
2023-03-01T03:23:02.611Z,42.33
2023-03-01T03:25:30.532Z,42.18
2023-03-01T03:27:58.761Z,41.21
2023-03-01T03:30:30.459Z,42.20
2023-03-01T03:32:58.649Z,41.02
2023-03-01T03:35:31.133Z,42.38
2023-03-01T03:38:10.274Z,41.40
2023-03-01T03:40:39.203Z,40.75
2023-03-01T03:43:09.480Z,41.20
2023-03-01T03:45:36.836Z,40.71
2023-03-01T03:48:06.121Z,40.94
2023-03-01T03:50:33.124Z,40.85
2023-03-01T03:53:02.432Z,41.20
2023-03-01T03:55:31.894Z,41.17
2023-03-01T03:58:02.876Z,41.65
2023-03-01T04:00:29.504Z,41.13
2023-03-01T04:02:57.367Z,41.36
2023-03-01T04:05:24.814Z,41.03
2023-03-01T04:08:01.865Z,41.76
2023-03-01T04:10:52.111Z,41.34
2023-03-01T04:13:21.351Z,41.43
2023-03-01T04:15:50.574Z,40.61
2023-03-01T04:18:18.964Z,41.29
2023-03-01T04:20:46.357Z,40.89
2023-03-01T04:23:20.930Z,41.23
2023-03-01T04:25:54.954Z,40.91
2023-03-01T04:28:29.831Z,40.96
2023-03-01T04:30:58.665Z,40.36
2023-03-01T04:33:26.818Z,40.63
2023-03-01T04:35:53.762Z,41.23
2023-03-01T04:38:22.067Z,41.31
2023-03-01T04:40:48.717Z,40.92
2023-03-01T04:43:15.704Z,41.44
2023-03-01T04:45:42.517Z,40.84
2023-03-01T04:48:09.179Z,41.29
2023-03-01T04:50:35.946Z,40.87
2023-03-01T04:53:02.894Z,40.96
2023-03-01T04:55:30.076Z,41.06
2023-03-01T04:57:56.936Z,41.21
2023-03-01T05:00:24.447Z,41.36
2023-03-01T05:03:00.201Z,41.32
2023-03-01T05:05:34.545Z,41.12
2023-03-01T05:08:03.080Z,41.38
2023-03-01T05:10:32.368Z,41.32
2023-03-01T05:13:00.201Z,41.23
2023-03-01T05:15:28.717Z,41.20
2023-03-01T05:17:59.509Z,42.34
2023-03-01T05:20:30.786Z,41.65
2023-03-01T05:22:59.835Z,41.70
2023-03-01T05:25:27.075Z,42.04
2023-03-01T05:27:53.706Z,41.78
2023-03-01T05:30:20.424Z,41.46
2023-03-01T05:32:49.455Z,42.60
2023-03-01T05:35:18.643Z,41.68
2023-03-01T05:37:48.267Z,42.65
2023-03-01T05:40:24.989Z,43.08
2023-03-01T05:42:56.005Z,43.40
2023-03-01T05:45:24.723Z,42.17
2023-03-01T05:47:52.719Z,41.79
2023-03-01T05:50:22.937Z,42.70
2023-03-01T05:52:52.218Z,42.18
2023-03-01T05:55:21.166Z,42.15
2023-03-01T05:57:48.559Z,42.68
2023-03-01T06:00:17.514Z,42.74
2023-03-01T06:02:44.078Z,43.55
2023-03-01T06:05:12.468Z,42.71
2023-03-01T06:07:39.510Z,42.26
2023-03-01T06:10:07.483Z,41.83
2023-03-01T06:12:35.385Z,42.30
2023-03-01T06:15:02.886Z,42.91
2023-03-01T06:17:38.213Z,42.92
2023-03-01T06:20:07.812Z,42.37
2023-03-01T06:22:34.375Z,41.96
2023-03-01T06:25:00.980Z,42.37
2023-03-01T06:27:27.529Z,44.08
2023-03-01T06:29:54.201Z,42.50
2023-03-01T06:32:21.033Z,42.17
2023-03-01T06:34:47.651Z,42.21
2023-03-01T06:37:14.206Z,42.65
2023-03-01T06:39:41.302Z,42.06
2023-03-01T06:42:10.926Z,41.80
2023-03-01T06:44:38.084Z,41.50
2023-03-01T06:47:05.222Z,42.45
2023-03-01T06:49:31.788Z,43.09
2023-03-01T06:51:58.376Z,42.39
2023-03-01T06:54:25.123Z,42.10
2023-03-01T06:56:51.653Z,41.25
2023-03-01T06:59:18.688Z,41.30
2023-03-01T07:01:45.480Z,40.99
2023-03-01T07:04:13.506Z,42.12
2023-03-01T07:06:40.358Z,41.39
2023-03-01T07:09:06.954Z,41.56
2023-03-01T07:11:33.866Z,41.75
2023-03-01T07:14:01.062Z,41.64
2023-03-01T07:16:27.847Z,41.31
2023-03-01T07:18:54.984Z,41.36
2023-03-01T07:21:21.503Z,41.42
2023-03-01T07:23:51.045Z,41.15
2023-03-01T07:26:17.735Z,41.38
2023-03-01T07:28:44.265Z,41.62
2023-03-01T07:31:10.803Z,42.07
2023-03-01T07:33:37.316Z,42.78
2023-03-01T07:36:04.835Z,42.76
2023-03-01T07:38:31.706Z,42.49
2023-03-01T07:41:02.829Z,41.50
2023-03-01T07:43:30.569Z,41.12
2023-03-01T07:46:03.707Z,42.11
2023-03-01T07:48:31.447Z,42.62
2023-03-01T07:51:02.753Z,42.35
2023-03-01T07:53:29.350Z,41.29
2023-03-01T07:56:07.848Z,40.74
2023-03-01T07:58:39.375Z,40.88
2023-03-01T08:01:09.758Z,40.81
2023-03-01T08:03:37.771Z,41.78
2023-03-01T08:06:07.096Z,40.93
2023-03-01T08:08:34.711Z,40.67
2023-03-01T08:11:02.950Z,40.89
2023-03-01T08:13:30.289Z,40.49
2023-03-01T08:16:03.235Z,40.95
2023-03-01T08:18:29.976Z,40.02
2023-03-01T08:20:56.564Z,40.79
2023-03-01T08:23:23.178Z,40.80
2023-03-01T08:25:49.983Z,40.60
2023-03-01T08:28:16.534Z,40.33
2023-03-01T08:30:43.034Z,39.86
2023-03-01T08:33:09.603Z,39.66
2023-03-01T08:35:36.155Z,39.37
2023-03-01T08:38:02.702Z,39.11
2023-03-01T08:40:29.213Z,38.75
2023-03-01T08:42:55.762Z,39.15
2023-03-01T08:45:22.327Z,38.88
2023-03-01T08:47:48.921Z,39.51
2023-03-01T08:50:15.748Z,39.45
2023-03-01T08:52:42.303Z,38.77
2023-03-01T08:55:09.239Z,39.11
2023-03-01T08:57:35.777Z,38.75
2023-03-01T09:00:02.491Z,38.39
2023-03-01T09:02:29.212Z,38.36
2023-03-01T09:04:55.823Z,38.04
2023-03-01T09:07:22.391Z,37.96
2023-03-01T09:09:48.925Z,37.66
2023-03-01T09:12:15.460Z,37.33
2023-03-01T09:14:42.962Z,37.80
2023-03-01T09:17:09.645Z,38.49
2023-03-01T09:19:36.242Z,38.40
2023-03-01T09:22:04.678Z,38.01
2023-03-01T09:24:31.530Z,37.82
2023-03-01T09:26:58.256Z,37.79
2023-03-01T09:29:25.118Z,37.56
2023-03-01T09:31:51.713Z,37.47
2023-03-01T09:34:24.246Z,37.71
2023-03-01T09:36:52.072Z,38.39
2023-03-01T09:39:19.406Z,38.56
2023-03-01T09:42:05.393Z,37.80
2023-03-01T09:44:39.205Z,38.45
2023-03-01T09:47:05.988Z,37.66
2023-03-01T09:49:36.119Z,37.97
2023-03-01T09:52:20.107Z,38.13
2023-03-01T09:54:47.960Z,38.28
2023-03-01T09:57:21.450Z,37.54
2023-03-01T09:59:56.888Z,39.01
2023-03-01T10:02:36.393Z,37.88
2023-03-01T10:05:32.566Z,37.98
2023-03-01T10:08:22.103Z,38.26
2023-03-01T10:10:50.090Z,37.60
2023-03-01T10:13:22.596Z,36.96
2023-03-01T10:15:56.917Z,36.22
2023-03-01T10:18:28.670Z,37.67
2023-03-01T10:21:00.799Z,36.80
2023-03-01T10:23:31.228Z,37.72
2023-03-01T10:26:30.487Z,36.18
2023-03-01T10:29:05.976Z,36.88
2023-03-01T10:31:51.419Z,36.72
2023-03-01T10:34:32.976Z,36.83
2023-03-01T10:37:22.571Z,36.73
2023-03-01T10:40:15.728Z,36.88
2023-03-01T10:42:50.852Z,37.21
2023-03-01T10:45:20.381Z,36.48
2023-03-01T10:47:46.974Z,36.58
2023-03-01T10:50:23.225Z,37.04
2023-03-01T10:53:01.854Z,36.18
2023-03-01T10:55:36.763Z,35.51
2023-03-01T10:58:15.428Z,35.25
2023-03-01T11:00:50.104Z,36.62
2023-03-01T11:03:27.569Z,35.09
2023-03-01T11:06:03.609Z,35.54
2023-03-01T11:08:37.062Z,35.23
2023-03-01T11:11:15.747Z,34.27
2023-03-01T11:14:26.449Z,35.01
2023-03-01T11:17:04.661Z,34.52
2023-03-01T11:19:31.973Z,34.55
2023-03-01T11:22:04.373Z,33.09
2023-03-01T11:24:49.342Z,31.75
2023-03-01T11:27:39.846Z,30.51
2023-03-01T11:30:14.306Z,30.70
2023-03-01T11:32:46.328Z,31.67
2023-03-01T11:35:22.130Z,30.69
2023-03-01T11:38:00.933Z,29.84
2023-03-01T11:40:34.452Z,27.04
2023-03-01T11:43:12.919Z,26.37
2023-03-01T11:46:08.069Z,24.76
2023-03-01T11:49:05.965Z,22.74
2023-03-01T11:51:53.161Z,21.46
2023-03-01T11:54:48.890Z,21.10
2023-03-01T11:57:42.909Z,19.14
2023-03-01T12:00:31.965Z,17.92
2023-03-01T12:03:26.358Z,18.26
2023-03-01T12:06:30.686Z,18.58
2023-03-01T12:09:08.275Z,18.71
2023-03-01T12:11:34.802Z,17.97
2023-03-01T12:14:19.578Z,17.54
2023-03-01T12:17:15.762Z,16.21
2023-03-01T12:19:42.260Z,16.46
2023-03-01T12:22:14.784Z,15.54
2023-03-01T12:25:13.395Z,16.67
2023-03-01T12:28:37.415Z,16.68
2023-03-01T12:31:36.241Z,18.28
2023-03-01T12:34:27.012Z,20.11
2023-03-01T12:37:00.903Z,19.74
2023-03-01T12:39:37.726Z,20.48
2023-03-01T12:42:25.797Z,19.53
2023-03-01T12:45:33.548Z,19.13
2023-03-01T12:48:15.787Z,20.39
2023-03-01T12:50:47.120Z,20.60
2023-03-01T12:53:36.631Z,18.33
2023-03-01T12:56:08.118Z,18.72
2023-03-01T12:58:48.656Z,19.44
2023-03-01T13:01:39.886Z,20.24
2023-03-01T13:04:23.881Z,20.89
2023-03-01T13:06:59.150Z,22.53
2023-03-01T13:09:56.698Z,20.49
2023-03-01T13:12:54.389Z,20.64
2023-03-01T13:15:23.849Z,21.48
2023-03-01T13:17:59.758Z,21.36
2023-03-01T13:20:35.585Z,21.79
2023-03-01T13:23:10.826Z,21.49
2023-03-01T13:26:03.190Z,21.56
2023-03-01T13:28:32.744Z,20.25
2023-03-01T13:30:59.994Z,19.58
2023-03-01T13:33:29.339Z,18.83
2023-03-01T13:35:57.900Z,18.00
2023-03-01T13:38:58.251Z,18.76
2023-03-01T13:41:40.272Z,19.94
2023-03-01T13:44:25.594Z,21.02
2023-03-01T13:46:54.885Z,22.17
2023-03-01T13:49:24.667Z,22.64
2023-03-01T13:51:52.703Z,23.47
2023-03-01T13:54:29.033Z,24.23
2023-03-01T13:56:56.831Z,24.90
2023-03-01T13:59:23.885Z,24.39
2023-03-01T14:01:59.596Z,26.65
2023-03-01T14:04:38.535Z,27.02
2023-03-01T14:07:11.157Z,26.11
2023-03-01T14:09:43.867Z,27.17
2023-03-01T14:12:38.522Z,27.20
2023-03-01T14:15:05.059Z,27.91
2023-03-01T14:17:48.716Z,28.58
2023-03-01T14:20:28.479Z,28.87
2023-03-01T14:22:58.085Z,28.53
2023-03-01T14:25:31.878Z,28.56
2023-03-01T14:28:04.651Z,27.36
2023-03-01T14:30:39.809Z,26.81
2023-03-01T14:33:07.656Z,27.07
2023-03-01T14:35:36.335Z,27.76
2023-03-01T14:38:04.235Z,26.57
2023-03-01T14:40:37.111Z,24.04
2023-03-01T14:43:12.182Z,24.63
2023-03-01T14:45:39.048Z,23.70
2023-03-01T14:48:08.177Z,25.12
2023-03-01T14:50:40.944Z,23.93
2023-03-01T14:53:08.986Z,24.66
2023-03-01T14:55:42.116Z,23.50
2023-03-01T14:58:15.608Z,24.60
2023-03-01T15:00:50.746Z,25.33
2023-03-01T15:03:46.852Z,26.03
2023-03-01T15:06:18.811Z,26.43
2023-03-01T15:08:54.910Z,26.39
2023-03-01T15:11:25.517Z,24.59
2023-03-01T15:13:53.580Z,25.58
2023-03-01T15:16:30.337Z,24.68
2023-03-01T15:19:00.441Z,25.28
2023-03-01T15:21:42.503Z,26.19
2023-03-01T15:24:21.092Z,25.95
2023-03-01T15:26:51.903Z,27.16
2023-03-01T15:29:20.424Z,27.23
2023-03-01T15:32:27.387Z,27.94
2023-03-01T15:34:54.120Z,29.85
2023-03-01T15:37:41.781Z,29.95
2023-03-01T15:40:32.286Z,29.29
2023-03-01T15:43:05.255Z,28.75
2023-03-01T15:45:34.952Z,28.67
2023-03-01T15:48:15.368Z,29.85
2023-03-01T15:50:44.488Z,31.04
2023-03-01T15:53:16.050Z,30.82
2023-03-01T15:55:42.597Z,31.35
2023-03-01T15:58:24.040Z,32.34
2023-03-01T16:01:01.669Z,32.31
2023-03-01T16:03:29.449Z,32.90
2023-03-01T16:05:56.387Z,32.69
2023-03-01T16:08:22.946Z,32.92
2023-03-01T16:10:52.048Z,33.59
2023-03-01T16:13:18.970Z,33.52
2023-03-01T16:15:45.861Z,33.86
2023-03-01T16:18:12.819Z,33.82
2023-03-01T16:20:40.499Z,33.95
2023-03-01T16:23:09.660Z,34.59
2023-03-01T16:25:37.166Z,34.52
2023-03-01T16:28:09.417Z,34.62
2023-03-01T16:30:37.500Z,34.67
2023-03-01T16:33:19.204Z,35.14
2023-03-01T16:35:51.825Z,35.36
2023-03-01T16:38:18.606Z,35.17
2023-03-01T16:40:49.542Z,35.04
2023-03-01T16:43:16.729Z,35.31
2023-03-01T16:45:47.456Z,35.39
2023-03-01T16:48:14.598Z,35.94
2023-03-01T16:50:41.692Z,35.78
2023-03-01T16:53:08.443Z,36.08
2023-03-01T16:55:35.056Z,36.50
2023-03-01T16:58:02.288Z,36.93
2023-03-01T17:00:29.548Z,38.26
2023-03-01T17:02:56.274Z,38.37
2023-03-01T17:05:24.970Z,38.21
2023-03-01T17:08:00.135Z,38.61
2023-03-01T17:10:30.772Z,38.50
2023-03-01T17:12:57.501Z,39.04
2023-03-01T17:15:24.759Z,39.41
2023-03-01T17:17:52.030Z,39.32
2023-03-01T17:20:19.173Z,39.55
2023-03-01T17:22:45.832Z,39.97
2023-03-01T17:25:12.919Z,39.95
2023-03-01T17:27:40.513Z,40.13
2023-03-01T17:30:08.939Z,40.56
2023-03-01T17:32:36.680Z,40.66
2023-03-01T17:35:03.495Z,40.82
2023-03-01T17:37:30.323Z,40.94
2023-03-01T17:39:57.021Z,41.37
2023-03-01T17:42:23.658Z,41.32
2023-03-01T17:44:51.106Z,41.45
2023-03-01T17:47:17.747Z,41.60
2023-03-01T17:49:44.335Z,42.42
2023-03-01T17:52:11.010Z,41.73
2023-03-01T17:54:37.596Z,41.64
2023-03-01T17:57:04.374Z,42.15
2023-03-01T17:59:33.387Z,42.28
2023-03-01T18:04:06.986Z,42.75
2023-03-01T18:06:34.114Z,43.43
2023-03-01T18:09:00.808Z,43.15
2023-03-01T18:11:28.169Z,42.71
2023-03-01T18:13:55.816Z,43.24
2023-03-01T18:16:23.008Z,43.29
2023-03-01T18:18:54.243Z,43.42
2023-03-01T18:21:21.527Z,43.62
2023-03-01T18:23:48.119Z,43.95
2023-03-01T18:26:22.021Z,43.97
2023-03-01T18:28:50.649Z,43.72
2023-03-01T18:31:18.820Z,43.58
2023-03-01T18:33:46.469Z,43.99
2023-03-01T18:36:20.535Z,43.63
2023-03-01T18:38:48.953Z,43.60
2023-03-01T18:41:16.405Z,43.34
2023-03-01T18:43:43.034Z,43.57
2023-03-01T18:46:10.196Z,43.40
2023-03-01T18:48:37.709Z,43.99
2023-03-01T18:51:15.847Z,43.76
2023-03-01T18:53:42.449Z,44.18
2023-03-01T18:56:10.456Z,44.13
2023-03-01T18:58:37.356Z,44.19
2023-03-01T19:01:07.831Z,44.77
2023-03-01T19:03:35.685Z,44.85
2023-03-01T19:06:02.322Z,44.86
2023-03-01T19:08:30.375Z,45.63
2023-03-01T19:10:58.934Z,45.30
2023-03-01T19:13:25.983Z,45.40
2023-03-01T19:15:53.185Z,45.75
2023-03-01T19:18:19.856Z,45.46
2023-03-01T19:20:46.775Z,45.56
2023-03-01T19:23:15.481Z,45.96
2023-03-01T19:25:41.999Z,45.61
2023-03-01T19:28:08.699Z,45.91
2023-03-01T19:30:35.290Z,46.02
2023-03-01T19:33:01.844Z,45.90
2023-03-01T19:35:28.564Z,45.86
2023-03-01T19:37:55.086Z,46.10
2023-03-01T19:40:21.706Z,46.38
2023-03-01T19:42:48.288Z,46.55
2023-03-01T19:45:16.191Z,46.64
2023-03-01T19:47:47.633Z,46.79
2023-03-01T19:50:14.452Z,46.13
2023-03-01T19:52:41.249Z,46.59
2023-03-01T19:55:10.014Z,46.77
2023-03-01T19:57:36.951Z,46.57
2023-03-01T20:00:04.065Z,47.03
2023-03-01T20:02:39.150Z,46.61
2023-03-01T20:05:05.933Z,46.38
2023-03-01T20:07:32.538Z,46.80
2023-03-01T20:09:59.103Z,46.64
2023-03-01T20:12:25.629Z,46.81
2023-03-01T20:14:55.250Z,46.53
2023-03-01T20:17:23.031Z,46.67
2023-03-01T20:19:49.636Z,46.87
2023-03-01T20:22:17.629Z,46.90
2023-03-01T20:24:44.429Z,46.89
2023-03-01T20:27:11.031Z,46.90
2023-03-01T20:29:37.708Z,47.15
2023-03-01T20:32:04.599Z,47.22
2023-03-01T20:34:31.251Z,47.40
2023-03-01T20:36:57.882Z,47.34
2023-03-01T20:39:24.516Z,46.95
2023-03-01T20:41:51.084Z,47.42
2023-03-01T20:44:17.639Z,47.32
2023-03-01T20:46:44.371Z,47.55
2023-03-01T20:49:11.017Z,47.30
2023-03-01T20:51:37.683Z,46.79
2023-03-01T20:54:05.198Z,47.08
2023-03-01T20:56:32.252Z,47.03
2023-03-01T20:59:04.380Z,47.25
2023-03-01T21:01:31.346Z,47.66
2023-03-01T21:03:57.928Z,47.76
2023-03-01T21:06:24.550Z,47.37
2023-03-01T21:08:52.036Z,47.42
2023-03-01T21:11:19.367Z,47.50
2023-03-01T21:13:46.545Z,47.84
2023-03-01T21:16:14.058Z,48.02
2023-03-01T21:18:41.111Z,49.00
2023-03-01T21:21:13.810Z,49.17
2023-03-01T21:23:41.800Z,48.91
2023-03-01T21:26:20.588Z,49.09
2023-03-01T21:28:50.084Z,49.18
2023-03-01T21:31:20.534Z,49.12
2023-03-01T21:33:49.969Z,48.84
2023-03-01T21:36:17.777Z,48.98
2023-03-01T21:38:46.673Z,48.32
2023-03-01T21:41:15.707Z,49.34
2023-03-01T21:43:44.241Z,48.30
2023-03-01T21:46:14.148Z,49.06
2023-03-01T21:48:44.215Z,48.41
2023-03-01T21:51:14.951Z,48.50
2023-03-01T21:53:42.598Z,48.29
2023-03-01T21:56:09.708Z,48.05
2023-03-01T21:58:36.572Z,48.00
2023-03-01T22:01:12.007Z,47.72
2023-03-01T22:03:45.373Z,47.89
2023-03-01T22:06:22.886Z,48.35
2023-03-01T22:08:58.504Z,48.15
2023-03-01T22:11:27.120Z,47.63
2023-03-01T22:13:56.019Z,47.35
2023-03-01T22:16:25.668Z,47.50
2023-03-01T22:18:52.630Z,47.57
2023-03-01T22:21:20.409Z,47.83
2023-03-01T22:23:47.076Z,47.33
2023-03-01T22:26:32.138Z,47.26
2023-03-01T22:29:00.860Z,47.22
2023-03-01T22:31:28.497Z,46.98
2023-03-01T22:33:56.171Z,47.13
2023-03-01T22:36:23.169Z,47.04
2023-03-01T22:38:50.378Z,47.31
2023-03-01T22:41:16.890Z,47.23
2023-03-01T22:43:43.413Z,46.97
2023-03-01T22:46:16.181Z,47.15
2023-03-01T22:48:43.631Z,47.37
2023-03-01T22:51:21.706Z,47.41
2023-03-01T22:53:48.340Z,47.55
2023-03-01T22:56:18.173Z,47.05
2023-03-01T22:58:45.282Z,47.44
2023-03-01T23:01:21.069Z,47.32
2023-03-01T23:03:48.077Z,47.16
2023-03-01T23:06:16.435Z,47.28
2023-03-01T23:08:43.864Z,47.33
2023-03-01T23:11:14.181Z,47.27
2023-03-01T23:13:41.577Z,47.24
2023-03-01T23:16:09.243Z,47.24
2023-03-01T23:18:36.062Z,47.47
2023-03-01T23:21:08.506Z,47.13
2023-03-01T23:23:35.104Z,47.31
2023-03-01T23:26:01.727Z,47.21
2023-03-01T23:28:29.610Z,47.86
2023-03-01T23:30:59.366Z,47.24
2023-03-01T23:33:27.744Z,47.44
2023-03-01T23:35:54.360Z,47.33
2023-03-01T23:38:21.272Z,47.59
2023-03-01T23:40:48.180Z,47.80
2023-03-01T23:43:15.561Z,47.78
2023-03-01T23:45:43.308Z,47.71
2023-03-01T23:48:12.121Z,47.43
2023-03-01T23:50:41.840Z,47.57
2023-03-01T23:53:19.422Z,47.60
2023-03-01T23:55:49.878Z,47.99
2023-03-01T23:58:16.724Z,47.59
